Time;durP1;ratioP1;P1;durP2;ratioP2;P2;SDS_P1;SDS_P2;PMS_P1;PMS_P2;Temp;Humidity;BMP_temperature;BMP_pressure;BME280_temperature;BME280_humidity;BME280_pressure;Samples;Min_cycle;Max_cycle;Signal;HPM_P1;HPM_P2
2023/10/29 00:01:42;;;;;;;1.88;0.40;;;;;;;9.36;100.00;96670.34;4979734;28;20042;-92
2023/10/29 00:04:07;;;;;;;1.50;0.80;;;;;;;9.33;100.00;96670.78;4988885;28;20117;-92
2023/10/29 00:06:34;;;;;;;0.88;0.40;;;;;;;9.34;100.00;96675.03;4995441;28;20037;-93
2023/10/29 00:09:00;;;;;;;1.30;0.45;;;;;;;9.28;100.00;96669.66;4981216;28;20052;-93
2023/10/29 00:11:26;;;;;;;1.17;0.30;;;;;;;9.32;100.00;96671.84;4978619;28;20037;-91
2023/10/29 00:13:51;;;;;;;2.47;0.43;;;;;;;9.30;100.00;96678.13;4995606;28;20149;-93
2023/10/29 00:16:17;;;;;;;1.58;0.40;;;;;;;9.29;100.00;96671.25;4995680;28;20450;-92
2023/10/29 00:18:43;;;;;;;1.33;0.40;;;;;;;9.23;100.00;96671.38;4997231;28;20133;-93
2023/10/29 00:21:09;;;;;;;0.63;0.40;;;;;;;9.21;100.00;96674.22;5013146;28;20034;-92
2023/10/29 00:23:35;;;;;;;0.63;0.40;;;;;;;9.21;100.00;96682.13;4995066;28;20046;-92
2023/10/29 00:26:01;;;;;;;1.05;0.50;;;;;;;9.16;100.00;96682.00;4977912;28;20497;-92
2023/10/29 00:28:27;;;;;;;2.60;0.40;;;;;;;9.15;100.00;96689.13;4973084;28;20045;-92
2023/10/29 00:30:56;;;;;;;0.50;0.50;;;;;;;9.17;100.00;96694.16;5009187;28;20025;-92
2023/10/29 00:33:22;;;;;;;0.43;0.38;;;;;;;9.17;100.00;96691.53;4991370;28;20049;-92
2023/10/29 00:35:48;;;;;;;0.57;0.40;;;;;;;9.17;100.00;96694.94;4977287;28;20030;-92
2023/10/29 00:38:14;;;;;;;1.35;0.32;;;;;;;9.19;100.00;96689.44;4999034;28;20117;-92
2023/10/29 00:40:41;;;;;;;1.00;0.50;;;;;;;9.18;100.00;96687.88;4985112;28;20030;-93
2023/10/29 00:43:06;;;;;;;0.82;0.52;;;;;;;9.12;100.00;96691.41;4997075;28;20096;-92
2023/10/29 00:45:33;;;;;;;4.05;0.28;;;;;;;9.09;100.00;96700.59;4975079;28;20403;-92
2023/10/29 00:48:00;;;;;;;3.40;0.40;;;;;;;9.02;100.00;96698.03;4988935;28;20057;-92
2023/10/29 00:50:26;;;;;;;0.50;0.20;;;;;;;8.99;100.00;96701.13;4995203;28;20038;-92
2023/10/29 00:52:52;;;;;;;0.55;0.30;;;;;;;8.95;100.00;96710.50;4996481;28;20137;-91
2023/10/29 00:55:18;;;;;;;0.47;0.25;;;;;;;8.95;100.00;96715.00;4976928;28;20281;-93
2023/10/29 00:57:44;;;;;;;1.05;0.30;;;;;;;9.00;100.00;96712.47;4991961;28;20043;-93
2023/10/29 01:00:10;;;;;;;3.63;0.40;;;;;;;9.01;100.00;96712.25;4979931;28;20036;-92
2023/10/29 01:02:37;;;;;;;1.65;0.32;;;;;;;9.01;100.00;96712.25;4976289;28;20033;-93
2023/10/29 01:05:04;;;;;;;0.80;0.30;;;;;;;9.03;100.00;96717.28;4976199;28;20030;-92
2023/10/29 01:07:31;;;;;;;2.42;0.22;;;;;;;9.06;100.00;96712.34;4968375;28;20487;-92
2023/10/29 01:09:59;;;;;;;0.35;0.20;;;;;;;9.04;100.00;96717.06;4980845;28;20097;-93
2023/10/29 01:12:27;;;;;;;0.20;0.10;;;;;;;8.93;100.00;96716.00;4979198;28;20069;-92
2023/10/29 01:14:53;;;;;;;1.35;0.30;;;;;;;8.91;100.00;96719.91;4966064;28;20038;-92
2023/10/29 01:17:21;;;;;;;1.38;0.25;;;;;;;8.87;100.00;96718.75;4979376;28;20049;-92
2023/10/29 01:19:46;;;;;;;0.30;0.20;;;;;;;8.82;100.00;96722.06;4973614;28;20046;-92
2023/10/29 01:22:12;;;;;;;0.30;0.30;;;;;;;8.77;100.00;96721.94;4979203;28;20487;-92
2023/10/29 01:24:39;;;;;;;4.85;0.80;;;;;;;8.76;100.00;96726.38;4993197;28;20053;-91
2023/10/29 01:27:05;;;;;;;0.80;0.20;;;;;;;8.72;100.00;96727.06;4980536;28;20133;-92
2023/10/29 01:29:30;;;;;;;1.42;0.45;;;;;;;8.67;100.00;96722.47;4973240;28;20129;-92
2023/10/29 01:31:56;;;;;;;0.30;0.20;;;;;;;8.61;100.00;96724.19;5015545;28;20399;-91
2023/10/29 01:34:22;;;;;;;0.93;0.70;;;;;;;8.62;100.00;96724.97;4976023;28;20034;-92
2023/10/29 01:36:48;;;;;;;1.70;0.63;;;;;;;8.53;100.00;96727.91;4973462;28;20030;-92
2023/10/29 01:39:13;;;;;;;1.08;0.50;;;;;;;8.49;100.00;96728.56;4999248;28;20092;-91
2023/10/29 01:41:39;;;;;;;0.65;0.30;;;;;;;8.40;100.00;96739.41;5009077;28;20099;-91
2023/10/29 01:44:05;;;;;;;0.50;0.30;;;;;;;8.35;100.00;96735.81;4981781;28;20036;-92
2023/10/29 01:46:31;;;;;;;0.98;0.50;;;;;;;8.29;100.00;96738.31;4974612;28;20129;-93
2023/10/29 01:48:57;;;;;;;1.88;0.52;;;;;;;8.24;100.00;96735.53;4998543;28;20126;-93
2023/10/29 01:51:22;;;;;;;1.50;0.50;;;;;;;8.19;100.00;96736.22;4971954;28;20057;-91
2023/10/29 01:53:48;;;;;;;2.70;0.70;;;;;;;8.15;100.00;96736.88;4976185;28;20491;-92
2023/10/29 01:56:14;;;;;;;2.83;0.60;;;;;;;8.13;100.00;96736.28;4989971;28;20041;-93
2023/10/29 01:58:40;;;;;;;4.40;1.00;;;;;;;8.09;100.00;96740.38;4989091;28;20029;-93
2023/10/29 02:01:11;;;;;;;3.50;0.93;;;;;;;8.11;100.00;96739.13;4979185;28;20045;-92
2023/10/29 02:03:38;;;;;;;1.85;0.75;;;;;;;8.06;100.00;96728.47;4994352;28;20438;-93
2023/10/29 02:06:13;;;;;;;2.00;0.85;;;;;;;8.06;100.00;96738.97;5009680;28;20117;-93
2023/10/29 02:08:39;;;;;;;6.55;1.17;;;;;;;7.99;100.00;96748.78;5007293;28;20109;-92
2023/10/29 02:11:05;;;;;;;2.78;1.13;;;;;;;7.93;100.00;96738.13;5005646;28;20045;-92
2023/10/29 02:13:31;;;;;;;4.93;1.10;;;;;;;7.88;100.00;96739.81;4992989;28;20030;-92
2023/10/29 02:15:56;;;;;;;2.42;0.90;;;;;;;7.84;100.00;96744.69;4979028;28;20026;-92
2023/10/29 02:18:22;;;;;;;2.88;0.93;;;;;;;7.79;100.00;96745.34;4977190;28;20055;-92
2023/10/29 02:20:48;;;;;;;8.27;1.10;;;;;;;7.78;100.00;96743.75;4984870;28;20045;-86
2023/10/29 02:23:13;;;;;;;1.88;1.15;;;;;;;7.77;100.00;96742.13;5004946;28;20041;-93
2023/10/29 02:25:40;;;;;;;4.93;1.00;;;;;;;7.74;100.00;96736.50;4986283;28;20044;-93
2023/10/29 02:28:05;;;;;;;5.70;1.15;;;;;;;7.73;100.00;96740.97;4990293;28;20038;-92
2023/10/29 02:30:31;;;;;;;3.38;1.08;;;;;;;7.73;100.00;96737.50;4977547;28;20152;-92
2023/10/29 02:32:57;;;;;;;2.20;0.88;;;;;;;7.71;100.00;96739.56;4994547;28;20030;-92
2023/10/29 02:35:23;;;;;;;2.15;0.93;;;;;;;7.68;100.00;96732.91;4977861;28;20087;-92
2023/10/29 02:37:48;;;;;;;5.38;1.02;;;;;;;7.66;100.00;96737.59;4981026;28;20137;-92
2023/10/29 02:40:14;;;;;;;2.28;0.80;;;;;;;7.64;100.00;96732.56;5006166;28;20470;-93
2023/10/29 02:42:40;;;;;;;3.05;1.17;;;;;;;7.60;100.00;96728.75;4989708;28;20509;-92
2023/10/29 02:45:06;;;;;;;1.20;0.80;;;;;;;7.62;100.00;96731.97;4972937;28;20525;-91
2023/10/29 02:47:32;;;;;;;1.38;0.60;;;;;;;7.65;100.00;96722.84;5018655;28;20483;-93
2023/10/29 02:49:58;;;;;;;4.70;0.82;;;;;;;7.68;100.00;96722.41;4975257;28;20046;-93
2023/10/29 02:52:24;;;;;;;3.85;0.90;;;;;;;7.66;100.00;96721.84;4992474;28;20052;-92
2023/10/29 02:54:50;;;;;;;2.33;0.50;;;;;;;7.63;100.00;96717.78;4970128;28;20033;-92
2023/10/29 02:57:16;;;;;;;1.63;0.45;;;;;;;7.63;100.00;96722.28;4980551;28;20061;-92
2023/10/29 02:59:42;;;;;;;1.35;0.68;;;;;;;7.59;100.00;96710.56;5000733;28;20545;-92
2023/10/29 03:02:08;;;;;;;3.30;0.70;;;;;;;7.56;100.00;96706.56;4997564;28;20037;-92
2023/10/29 03:04:33;;;;;;;2.65;0.73;;;;;;;7.55;100.00;96710.19;4998149;28;20589;-93
2023/10/29 03:06:59;;;;;;;1.40;0.65;;;;;;;7.55;100.00;96704.94;4997045;28;20034;-92
2023/10/29 03:09:25;;;;;;;0.90;0.73;;;;;;;7.52;100.00;96708.81;4993918;28;20053;-93
2023/10/29 03:11:50;;;;;;;0.70;0.40;;;;;;;7.54;100.00;96714.66;4995145;28;20478;-92
2023/10/29 03:14:16;;;;;;;0.73;0.52;;;;;;;7.50;100.00;96712.69;4979295;28;20042;-91
2023/10/29 03:16:42;;;;;;;0.60;0.50;;;;;;;7.45;100.00;96706.25;4975508;28;20030;-91
2023/10/29 03:19:08;;;;;;;5.40;0.68;;;;;;;7.42;100.00;96711.16;5008906;28;20116;-86
2023/10/29 03:21:34;;;;;;;174.95;3.35;;;;;;;7.34;100.00;96701.72;4977035;28;20042;-92
2023/10/29 03:23:59;;;;;;;27.17;0.68;;;;;;;7.33;100.00;96713.22;4976848;28;20033;-93
2023/10/29 03:26:25;;;;;;;1.23;0.50;;;;;;;7.39;100.00;96715.00;4990356;28;20053;-92
2023/10/29 03:28:51;;;;;;;45.08;0.90;;;;;;;7.36;100.00;96715.44;4979289;28;20112;-93
2023/10/29 03:31:18;;;;;;;54.10;1.23;;;;;;;7.30;100.00;96718.91;4979904;28;20038;-92
2023/10/29 03:33:45;;;;;;;49.97;1.20;;;;;;;7.29;100.00;96723.34;4997629;28;20465;-93
2023/10/29 03:36:12;;;;;;;60.05;1.58;;;;;;;7.24;100.00;96715.34;4991301;28;20540;-92
2023/10/29 03:38:38;;;;;;;121.25;3.70;;;;;;;7.21;100.00;96715.78;4981961;28;20054;-92
2023/10/29 03:41:04;;;;;;;36.30;1.77;;;;;;;7.10;100.00;96709.41;4995347;28;20044;-91
2023/10/29 03:43:30;;;;;;;315.65;8.98;;;;;;;7.12;100.00;96717.06;4973483;28;20088;-90
2023/10/29 03:45:55;;;;;;;271.25;5.43;;;;;;;7.01;100.00;96721.97;4980667;28;20502;-91
2023/10/29 03:48:21;;;;;;;174.85;3.25;;;;;;;6.95;100.00;96715.78;5007817;28;20037;-91
2023/10/29 03:50:47;;;;;;;40.47;1.60;;;;;;;6.89;100.00;96716.63;4979288;28;20044;-92
2023/10/29 03:53:12;;;;;;;22.65;1.20;;;;;;;6.91;100.00;96725.06;4994660;28;20035;-91
2023/10/29 03:55:38;;;;;;;51.63;1.73;;;;;;;6.92;100.00;96731.94;4980652;28;20033;-93
2023/10/29 03:58:04;;;;;;;101.47;3.00;;;;;;;6.90;100.00;96715.59;4981254;28;20036;-93
2023/10/29 04:00:30;;;;;;;78.32;1.88;;;;;;;6.82;100.00;96721.91;4996702;28;21603;-93
2023/10/29 04:02:59;;;;;;;37.60;1.20;;;;;;;6.69;100.00;96717.56;4989282;28;20049;-94
2023/10/29 04:05:25;;;;;;;41.75;1.10;;;;;;;6.66;100.00;96725.03;4976368;28;20562;-93
2023/10/29 04:07:52;;;;;;;67.50;1.35;;;;;;;6.65;100.00;96726.06;4998119;28;20038;-93
2023/10/29 04:10:18;;;;;;;28.50;0.88;;;;;;;6.62;100.00;96724.66;4979486;28;20044;-93
2023/10/29 04:12:44;;;;;;;39.35;1.10;;;;;;;6.67;100.00;96735.31;5005739;28;20042;-93
2023/10/29 04:15:11;;;;;;;78.25;1.58;;;;;;;6.66;100.00;96732.91;5010065;28;20487;-91
2023/10/29 04:17:37;;;;;;;295.48;5.55;;;;;;;6.63;100.00;96736.75;4996985;28;20127;-93
2023/10/29 04:20:05;;;;;;;144.90;2.97;;;;;;;6.56;100.00;96731.56;5002079;28;20038;-93
2023/10/29 04:22:32;;;;;;;117.35;2.88;;;;;;;6.45;100.00;96730.41;4995202;28;20038;-93
2023/10/29 04:24:59;;;;;;;104.20;2.33;;;;;;;6.21;100.00;96734.56;5009892;28;20124;-93
2023/10/29 04:27:24;;;;;;;86.13;1.75;;;;;;;6.07;100.00;96729.34;4998379;28;20037;-93
2023/10/29 04:29:50;;;;;;;43.15;1.10;;;;;;;6.03;100.00;96728.16;4979322;28;20037;-92
2023/10/29 04:32:16;;;;;;;47.95;1.30;;;;;;;6.04;100.00;96729.78;4979884;28;20033;-92
2023/10/29 04:34:42;;;;;;;78.75;1.40;;;;;;;6.05;100.00;96728.75;4979930;28;20036;-93
2023/10/29 04:37:08;;;;;;;80.10;1.92;;;;;;;6.11;100.00;96740.25;4981351;28;20034;-93
2023/10/29 04:39:33;;;;;;;70.30;1.70;;;;;;;6.13;100.00;96732.97;4990128;28;20042;-93
2023/10/29 04:42:01;;;;;;;24.20;0.98;;;;;;;6.24;100.00;96746.44;4991408;28;20033;-93
2023/10/29 04:44:27;;;;;;;83.85;2.13;;;;;;;6.30;100.00;96749.06;4996000;28;20359;-92
2023/10/29 04:46:53;;;;;;;240.65;3.85;;;;;;;6.30;100.00;96743.00;4979006;28;20034;-91
2023/10/29 04:49:19;;;;;;;47.00;1.20;;;;;;;6.20;100.00;96749.47;4992151;28;21247;-93
2023/10/29 04:51:44;;;;;;;176.13;3.10;;;;;;;6.13;100.00;96746.06;4997614;28;20030;-93
2023/10/29 04:54:11;;;;;;;25.15;1.33;;;;;;;6.07;100.00;96739.03;4979977;28;20387;-92
2023/10/29 04:56:37;;;;;;;73.65;1.90;;;;;;;6.05;100.00;96744.47;5001917;28;20137;-93
2023/10/29 04:59:03;;;;;;;28.88;1.65;;;;;;;5.98;100.00;96733.19;4996263;28;20125;-92
2023/10/29 05:01:29;;;;;;;40.35;1.00;;;;;;;5.95;100.00;96738.84;5007969;28;20505;-93
2023/10/29 05:03:54;;;;;;;37.38;0.88;;;;;;;5.92;100.00;96732.22;4995262;28;20088;-94
2023/10/29 05:06:21;;;;;;;54.72;8.45;;;;;;;5.83;100.00;96736.03;4977655;28;20030;-93
2023/10/29 05:08:47;;;;;;;34.03;0.85;;;;;;;5.71;100.00;96731.47;4987212;28;20474;-93
2023/10/29 05:11:13;;;;;;;54.05;1.60;;;;;;;5.57;100.00;96751.63;4989834;28;20085;-92
2023/10/29 05:13:39;;;;;;;92.78;1.88;;;;;;;5.52;100.00;96748.00;4978854;28;20045;-86
2023/10/29 05:16:05;;;;;;;22.95;0.50;;;;;;;5.46;100.00;96744.41;4997152;28;20037;-94
2023/10/29 05:18:31;;;;;;;34.15;1.33;;;;;;;5.37;100.00;96737.75;4986650;28;20054;-93
2023/10/29 05:20:57;;;;;;;103.82;2.17;;;;;;;5.29;100.00;96734.34;4982659;28;20042;-92
2023/10/29 05:23:22;;;;;;;72.78;2.78;;;;;;;5.24;100.00;96725.47;4978476;28;20037;-92
2023/10/29 05:25:48;;;;;;;60.25;1.88;;;;;;;5.16;100.00;96731.72;4980605;28;20041;-93
2023/10/29 05:28:14;;;;;;;51.15;1.63;;;;;;;5.13;100.00;96729.50;4994739;28;20041;-93
2023/10/29 05:30:39;;;;;;;73.78;1.90;;;;;;;5.08;100.00;96724.88;4973916;28;20034;-93
2023/10/29 05:33:06;;;;;;;37.30;1.48;;;;;;;5.06;100.00;96730.31;4980086;28;20030;-93
2023/10/29 05:35:32;;;;;;;25.73;1.05;;;;;;;5.12;100.00;96733.94;4996454;28;20065;-94
2023/10/29 05:37:58;;;;;;;39.58;1.20;;;;;;;5.27;100.00;96738.16;4999027;28;20455;-93
2023/10/29 05:40:23;;;;;;;35.15;1.30;;;;;;;5.38;100.00;96742.00;4991627;28;20041;-94
2023/10/29 05:42:49;;;;;;;25.30;1.67;;;;;;;5.49;100.00;96738.75;4969563;28;20038;-92
2023/10/29 05:45:15;;;;;;;77.50;2.38;;;;;;;5.61;100.00;96735.50;4980106;28;20033;-91
2023/10/29 05:47:40;;;;;;;118.15;3.22;;;;;;;5.63;100.00;96736.09;4990537;28;20029;-91
2023/10/29 05:50:07;;;;;;;32.05;1.90;;;;;;;5.62;100.00;96726.63;4997023;28;20713;-93
2023/10/29 05:52:32;;;;;;;89.72;2.83;;;;;;;5.55;100.00;96730.09;4997026;28;20041;-94
2023/10/29 05:55:01;;;;;;;29.73;1.63;;;;;;;5.45;100.00;96737.53;4978508;28;20772;-94
2023/10/29 05:57:27;;;;;;;70.68;1.67;;;;;;;5.32;100.00;96735.72;4994744;28;20049;-93
2023/10/29 05:59:52;;;;;;;148.82;2.85;;;;;;;5.28;100.00;96730.09;4975167;28;20042;-94
2023/10/29 06:02:18;;;;;;;45.97;1.40;;;;;;;5.29;100.00;96736.94;4999193;28;20038;-94
2023/10/29 06:04:44;;;;;;;46.58;1.50;;;;;;;5.26;100.00;96732.13;4994697;28;20042;-93
2023/10/29 06:07:09;;;;;;;55.20;1.50;;;;;;;5.32;100.00;96731.31;4978941;28;20026;-94
2023/10/29 06:09:35;;;;;;;74.68;2.75;;;;;;;5.31;100.00;96731.50;4978073;28;20099;-94
2023/10/29 06:12:01;;;;;;;60.20;3.25;;;;;;;5.20;100.00;96720.66;4988510;28;20088;-93
2023/10/29 06:14:27;;;;;;;93.80;3.20;;;;;;;5.09;100.00;96718.63;4977650;28;20030;-94
2023/10/29 06:16:56;;;;;;;55.90;1.73;;;;;;;4.99;100.00;96712.97;4981924;28;20149;-94
2023/10/29 06:19:25;;;;;;;60.90;1.50;;;;;;;4.95;100.00;96716.00;4991322;28;20062;-94
2023/10/29 06:21:51;;;;;;;29.88;1.55;;;;;;;4.93;100.00;96712.78;4992505;28;20042;-94
2023/10/29 06:24:17;;;;;;;20.85;0.82;;;;;;;4.98;100.00;96714.81;4979132;28;20050;-93
2023/10/29 06:26:43;;;;;;;13.70;0.80;;;;;;;5.06;100.00;96725.09;4976253;28;20042;-93
2023/10/29 06:29:09;;;;;;;10.60;0.73;;;;;;;5.18;100.00;96727.06;4975042;28;20034;-93
2023/10/29 06:31:35;;;;;;;99.38;2.97;;;;;;;5.23;100.00;96724.66;4980674;28;20602;-93
2023/10/29 06:34:02;;;;;;;145.57;3.15;;;;;;;5.32;100.00;96730.50;4975431;28;20205;-93
2023/10/29 06:36:28;;;;;;;31.27;1.13;;;;;;;5.29;100.00;96726.47;4992335;28;20080;-93
2023/10/29 06:38:55;;;;;;;138.48;3.67;;;;;;;5.29;100.00;96726.47;4973423;28;20038;-94
2023/10/29 06:41:21;;;;;;;106.07;2.80;;;;;;;5.20;100.00;96718.03;5009711;28;20411;-93
2023/10/29 06:43:47;;;;;;;49.20;1.98;;;;;;;5.20;100.00;96725.88;4992569;28;20041;-93
2023/10/29 06:46:15;;;;;;;238.02;5.07;;;;;;;5.08;100.00;96727.50;4977163;28;20027;-95
2023/10/29 06:48:41;;;;;;;51.35;1.85;;;;;;;5.03;100.00;96729.91;4971450;28;20414;-93
2023/10/29 06:51:11;;;;;;;46.08;3.42;;;;;;;4.97;100.00;96724.47;4995107;28;20030;-83
2023/10/29 06:53:37;;;;;;;103.90;4.70;;;;;;;4.80;100.00;96739.75;5000378;28;20029;-93
2023/10/29 06:56:04;;;;;;;97.38;3.63;;;;;;;4.69;100.00;96737.72;4977152;28;20033;-93
2023/10/29 06:58:30;;;;;;;77.88;2.65;;;;;;;4.63;100.00;96741.13;4981967;28;20048;-94
2023/10/29 07:01:08;;;;;;;32.67;2.08;;;;;;;4.59;100.00;96741.53;4998756;28;20061;-94
2023/10/29 07:03:35;;;;;;;27.63;2.30;;;;;;;4.59;100.00;96745.94;5026803;28;20038;-93
2023/10/29 07:06:05;;;;;;;49.35;2.53;;;;;;;4.62;100.00;96742.13;4995713;28;20034;-95
2023/10/29 07:08:32;;;;;;;6.47;1.10;;;;;;;4.58;100.00;96742.53;4993039;28;20038;-94
2023/10/29 07:10:58;;;;;;;4.10;1.20;;;;;;;4.58;100.00;96754.78;4972285;28;20177;-93
2023/10/29 07:13:24;;;;;;;3.70;1.25;;;;;;;4.52;100.00;96758.19;4979255;28;20045;-94
2023/10/29 07:15:51;;;;;;;2.65;1.10;;;;;;;4.52;100.00;96763.44;4994274;28;20382;-94
2023/10/29 07:18:16;;;;;;;1.83;1.08;;;;;;;4.48;100.00;96765.63;5011361;28;20057;-94
2023/10/29 07:20:42;;;;;;;2.35;1.00;;;;;;;4.51;100.00;96769.69;4993932;28;20030;-93
2023/10/29 07:23:08;;;;;;;1.95;0.70;;;;;;;4.44;100.00;96756.56;4993387;28;20466;-94
2023/10/29 07:25:35;;;;;;;9.98;0.70;;;;;;;4.40;100.00;96765.78;4974576;28;20318;-93
2023/10/29 07:28:01;;;;;;;5.45;0.60;;;;;;;4.38;100.00;96765.22;4974937;28;20072;-93
2023/10/29 07:30:27;;;;;;;0.50;0.45;;;;;;;4.40;100.00;96769.22;4994218;28;20069;-94
2023/10/29 07:32:53;;;;;;;0.60;0.50;;;;;;;4.33;100.00;96769.19;4968962;28;20035;-94
2023/10/29 07:35:18;;;;;;;0.95;0.52;;;;;;;4.34;100.00;96773.44;4984035;28;20042;-95
2023/10/29 07:37:45;;;;;;;1.02;0.40;;;;;;;4.32;100.00;96774.63;4973462;28;20053;-94
2023/10/29 07:40:11;;;;;;;0.82;0.30;;;;;;;4.36;100.00;96772.44;4968807;28;20042;-94
2023/10/29 07:42:36;;;;;;;0.63;0.40;;;;;;;4.35;100.00;96771.63;4983802;28;20117;-86
2023/10/29 07:45:02;;;;;;;0.30;0.30;;;;;;;4.41;100.00;96773.44;4978107;28;20065;-93
2023/10/29 07:47:28;;;;;;;2.78;0.47;;;;;;;4.41;100.00;96770.81;4978170;28;20038;-94
2023/10/29 07:49:54;;;;;;;0.85;0.50;;;;;;;4.46;100.00;96772.84;4984930;28;20116;-94
2023/10/29 07:52:20;;;;;;;0.50;0.50;;;;;;;4.56;100.00;96762.03;4997432;28;20042;-94
2023/10/29 07:54:46;;;;;;;0.50;0.50;;;;;;;4.61;100.00;96761.44;4989816;28;20089;-94
2023/10/29 07:57:11;;;;;;;1.58;0.50;;;;;;;4.60;100.00;96758.03;4954773;28;20029;-94
2023/10/29 07:59:37;;;;;;;0.73;0.40;;;;;;;4.63;100.00;96757.63;4996087;28;20352;-93
2023/10/29 08:02:03;;;;;;;1.58;1.30;;;;;;;4.65;100.00;96746.97;4977655;28;20034;-94
2023/10/29 08:04:30;;;;;;;8.20;2.95;;;;;;;4.72;100.00;96761.69;4992077;28;20625;-94
2023/10/29 08:06:55;;;;;;;3.20;1.92;;;;;;;4.74;100.00;96752.81;4978401;28;20073;-94
2023/10/29 08:09:22;;;;;;;1.77;1.52;;;;;;;4.84;100.00;96764.50;4977707;28;20100;-93
2023/10/29 08:11:48;;;;;;;2.17;1.65;;;;;;;4.97;100.00;96768.13;4977630;28;20031;-93
2023/10/29 08:14:14;;;;;;;4.70;2.33;;;;;;;5.03;100.00;96767.34;4996557;28;20040;-94
2023/10/29 08:16:41;;;;;;;3.80;2.42;;;;;;;5.03;100.00;96775.19;4975380;28;20037;-93
2023/10/29 08:19:07;;;;;;;3.15;2.10;;;;;;;5.11;100.00;96776.03;4987288;28;20097;-93
2023/10/29 08:21:33;;;;;;;3.65;1.50;;;;;;;5.11;100.00;96768.97;4970613;28;20034;-93
2023/10/29 08:23:59;;;;;;;3.15;1.52;;;;;;;5.16;100.00;96779.63;4990333;28;20501;-93
2023/10/29 08:26:26;;;;;;;3.78;1.40;;;;;;;5.24;100.00;96777.84;4998747;28;20041;-93
2023/10/29 08:28:52;;;;;;;1.98;0.82;;;;;;;5.31;100.00;96768.97;4996961;28;20434;-93
2023/10/29 08:31:18;;;;;;;1.27;1.02;;;;;;;5.34;100.00;96779.06;4980838;28;20128;-94
2023/10/29 08:33:44;;;;;;;5.05;1.02;;;;;;;5.42;100.00;96772.81;4974972;28;20083;-94
2023/10/29 08:36:10;;;;;;;2.00;1.08;;;;;;;5.51;100.00;96777.84;4981243;28;20042;-94
2023/10/29 08:38:36;;;;;;;1.55;0.80;;;;;;;5.56;100.00;96778.84;4995882;28;20041;-94
2023/10/29 08:41:12;;;;;;;1.85;1.00;;;;;;;5.71;100.00;96788.28;4975891;28;20026;-94
2023/10/29 08:43:38;;;;;;;2.10;1.00;;;;;;;5.70;100.00;96781.44;5006390;28;20044;-94
2023/10/29 08:46:04;;;;;;;4.95;0.90;;;;;;;5.77;100.00;96781.41;4982607;28;20034;-94
2023/10/29 08:48:30;;;;;;;5.60;1.10;;;;;;;5.81;100.00;96777.41;4976074;28;20038;-93
2023/10/29 08:50:56;;;;;;;1.67;0.95;;;;;;;5.86;100.00;96776.78;4996792;28;20021;-94
2023/10/29 08:53:22;;;;;;;2.60;1.02;;;;;;;5.92;100.00;96778.59;4969681;28;20037;-94
2023/10/29 08:55:48;;;;;;;5.63;1.08;;;;;;;5.95;100.00;96773.75;4986652;28;20080;-82
2023/10/29 08:58:14;;;;;;;6.47;1.50;;;;;;;6.01;100.00;96777.34;5001766;28;20037;-95
2023/10/29 09:00:40;;;;;;;0.68;0.68;;;;;;;6.05;100.00;96775.94;4984745;28;20479;-94
2023/10/29 09:03:06;;;;;;;4.00;1.00;;;;;;;6.10;100.00;96779.78;4987331;28;20041;-95
2023/10/29 09:05:31;;;;;;;3.13;1.00;;;;;;;6.15;100.00;96787.81;4986958;28;20034;-95
2023/10/29 09:07:57;;;;;;;4.15;0.90;;;;;;;6.19;100.00;96781.16;4978998;28;20038;-94
2023/10/29 09:10:23;;;;;;;5.15;1.20;;;;;;;6.22;100.00;96786.00;4997811;28;20026;-94
2023/10/29 09:12:48;;;;;;;8.65;1.50;;;;;;;6.27;100.00;96790.63;4993002;28;20045;-94
2023/10/29 09:15:15;;;;;;;3.58;1.13;;;;;;;6.32;100.00;96788.97;4975325;28;20022;-94
2023/10/29 09:17:40;;;;;;;4.13;0.90;;;;;;;6.35;100.00;96784.31;4995454;28;20465;-94
2023/10/29 09:20:07;;;;;;;2.25;1.15;;;;;;;6.37;100.00;96784.94;4994794;28;20034;-94
2023/10/29 09:22:33;;;;;;;2.83;1.17;;;;;;;6.41;100.00;96786.13;4973754;28;20069;-95
2023/10/29 09:24:59;;;;;;;4.72;1.55;;;;;;;6.47;100.00;96793.16;4987904;28;20506;-94
2023/10/29 09:27:25;;;;;;;7.35;1.73;;;;;;;6.51;100.00;96791.75;4980433;28;20363;-95
2023/10/29 09:29:50;;;;;;;6.60;1.92;;;;;;;6.58;100.00;96794.31;5007665;28;20375;-94
2023/10/29 09:32:16;;;;;;;3.95;2.15;;;;;;;6.64;100.00;96790.06;4978270;28;20371;-95
2023/10/29 09:34:42;;;;;;;4.57;1.52;;;;;;;6.64;100.00;96782.19;4992671;28;20466;-95
2023/10/29 09:37:08;;;;;;;5.22;1.50;;;;;;;6.68;100.00;96797.31;4970234;28;20466;-94
2023/10/29 09:39:34;;;;;;;6.43;1.30;;;;;;;6.75;100.00;96797.28;4979458;28;20049;-95
2023/10/29 09:42:08;;;;;;;4.82;1.27;;;;;;;6.80;100.00;96794.81;4977152;28;20038;-95
2023/10/29 09:44:34;;;;;;;3.58;1.00;;;;;;;6.81;100.00;96806.13;4975831;28;20128;-94
2023/10/29 09:47:12;;;;;;;1.73;0.90;;;;;;;6.92;100.00;96791.50;4972698;28;20085;-94
2023/10/29 09:49:38;;;;;;;5.05;1.45;;;;;;;6.93;100.00;96799.19;4999858;28;20030;-95
2023/10/29 09:52:05;;;;;;;2.80;1.67;;;;;;;7.01;100.00;96795.50;4979124;28;20037;-94
2023/10/29 09:54:32;;;;;;;4.72;2.53;;;;;;;7.07;100.00;96801.72;4976413;28;20033;-94
2023/10/29 09:56:57;;;;;;;5.43;2.67;;;;;;;7.09;100.00;96794.44;4991530;28;20383;-93
2023/10/29 09:59:23;;;;;;;5.90;3.30;;;;;;;7.14;100.00;96801.66;5008352;28;20041;-94
2023/10/29 10:01:49;;;;;;;9.85;2.65;;;;;;;7.17;100.00;96806.50;4989209;28;20464;-93
2023/10/29 10:04:15;;;;;;;3.90;1.45;;;;;;;7.19;100.00;96809.72;4994008;28;20546;-94
2023/10/29 10:06:42;;;;;;;1.50;0.93;;;;;;;7.27;100.00;96798.97;4972832;28;20490;-93
2023/10/29 10:09:10;;;;;;;5.47;1.20;;;;;;;7.28;100.00;96805.00;4992463;28;20491;-93
2023/10/29 10:11:36;;;;;;;3.65;1.27;;;;;;;7.30;100.00;96789.84;4992249;28;20212;-93
2023/10/29 10:14:01;;;;;;;8.23;1.55;;;;;;;7.36;100.00;96801.34;4972675;28;20027;-92
2023/10/29 10:16:27;;;;;;;2.92;1.30;;;;;;;7.35;100.00;96797.06;4967588;28;20030;-94
2023/10/29 10:18:55;;;;;;;8.35;1.20;;;;;;;7.40;100.00;96795.44;5008477;28;20061;-93
2023/10/29 10:21:41;;;;;;;2.65;0.95;;;;;;;7.50;100.00;96805.44;4986287;28;20123;-93
2023/10/29 10:24:07;;;;;;;5.83;1.23;;;;;;;7.48;100.00;96798.81;4985941;28;20026;-92
2023/10/29 10:26:35;;;;;;;4.35;1.30;;;;;;;7.60;100.00;96802.34;5004994;28;20110;-94
2023/10/29 10:29:05;;;;;;;4.70;1.02;;;;;;;7.63;100.00;96793.22;4992498;28;20386;-92
2023/10/29 10:31:33;;;;;;;8.93;1.38;;;;;;;7.64;100.00;96794.84;4981644;28;20026;-92
2023/10/29 10:34:12;;;;;;;3.85;1.30;;;;;;;7.77;100.00;96799.94;4975397;28;20053;-93
2023/10/29 10:36:38;;;;;;;8.07;2.13;;;;;;;7.75;100.00;96796.75;4975354;28;20148;-93
2023/10/29 10:39:04;;;;;;;7.55;1.75;;;;;;;7.82;100.00;96794.03;4974990;28;20038;-92
2023/10/29 10:41:44;;;;;;;4.35;1.55;;;;;;;7.89;100.00;96801.88;4975821;28;20478;-93
2023/10/29 10:44:18;;;;;;;4.72;1.50;;;;;;;7.90;100.00;96796.41;4999281;28;20037;-93
2023/10/29 10:46:49;;;;;;;3.50;1.35;;;;;;;7.99;100.00;96802.19;4969276;28;20723;-94
2023/10/29 10:49:16;;;;;;;5.53;1.50;;;;;;;8.03;100.00;96798.09;4989831;28;20038;-94
2023/10/29 10:51:42;;;;;;;4.13;1.27;;;;;;;8.06;100.00;96808.19;4989230;28;20034;-84
2023/10/29 10:54:09;;;;;;;4.80;1.40;;;;;;;8.12;100.00;96800.44;4974665;28;20038;-93
2023/10/29 10:56:36;;;;;;;8.20;1.70;;;;;;;8.24;100.00;96808.41;4994821;28;20091;-93
2023/10/29 10:59:07;;;;;;;13.18;2.47;;;;;;;8.33;100.00;96809.72;4991737;28;20049;-94
2023/10/29 11:01:35;;;;;;;6.57;1.80;;;;;;;8.40;100.00;96810.44;4991007;28;20124;-92
2023/10/29 11:04:03;;;;;;;6.13;1.52;;;;;;;8.54;100.00;96813.75;4978371;28;20540;-93
2023/10/29 11:06:32;;;;;;;4.82;1.75;;;;;;;8.67;100.00;96814.59;4974540;28;20125;-93
2023/10/29 11:08:59;;;;;;;4.03;1.73;;;;;;;8.75;100.00;96809.03;4990344;28;20034;-94
2023/10/29 11:11:31;;;;;;;5.97;2.20;;;;;;;8.90;100.00;96808.63;4978023;28;20039;-94
2023/10/29 11:14:11;;;;;;;8.05;2.40;;;;;;;9.07;100.00;96805.38;4992482;28;20111;-93
2023/10/29 11:16:56;;;;;;;6.95;1.73;;;;;;;9.29;100.00;96805.66;4975886;28;20026;-93
2023/10/29 11:19:44;;;;;;;7.85;1.73;;;;;;;9.44;100.00;96809.69;4994847;28;20124;-93
2023/10/29 11:22:12;;;;;;;5.95;2.00;;;;;;;9.56;100.00;96814.97;5019671;28;20042;-94
2023/10/29 11:24:38;;;;;;;6.28;1.75;;;;;;;9.71;100.00;96814.53;4987506;28;20042;-94
2023/10/29 11:27:33;;;;;;;5.70;1.35;;;;;;;9.75;100.00;96813.03;4994127;28;20405;-93